createdAt,value
2019-01-10T00:01:53.471Z,16.50
2019-01-10T00:04:23.923Z,16.50
2019-01-10T00:06:54.325Z,16.40
2019-01-10T00:09:24.863Z,16.50
2019-01-10T00:11:55.422Z,16.50
2019-01-10T00:14:25.946Z,16.50
2019-01-10T00:16:56.368Z,16.50
2019-01-10T00:19:26.749Z,16.60
2019-01-10T00:21:57.074Z,16.60
2019-01-10T00:24:27.333Z,16.60
2019-01-10T00:26:57.748Z,16.60
2019-01-10T00:29:28.173Z,16.60
2019-01-10T00:31:58.595Z,16.60
2019-01-10T00:34:29.024Z,16.60
2019-01-10T00:36:59.694Z,16.60
2019-01-10T00:39:30.134Z,16.60
2019-01-10T00:42:00.490Z,16.60
2019-01-10T00:44:30.982Z,16.60
2019-01-10T00:47:01.612Z,16.50
2019-01-10T00:49:32.040Z,16.50
2019-01-10T00:52:02.578Z,16.50
2019-01-10T00:54:33.096Z,16.60
2019-01-10T00:57:03.544Z,16.60
2019-01-10T00:59:33.880Z,16.50
2019-01-10T01:02:04.314Z,16.60
2019-01-10T01:04:34.808Z,16.60
2019-01-10T01:07:05.552Z,16.60
2019-01-10T01:09:55.085Z,16.60
2019-01-10T01:12:25.512Z,16.70
2019-01-10T01:14:55.861Z,16.70
2019-01-10T01:17:26.202Z,16.60
2019-01-10T01:19:56.493Z,16.60
2019-01-10T01:22:26.819Z,16.60
2019-01-10T01:24:57.205Z,16.50
2019-01-10T01:27:27.601Z,16.50
2019-01-10T01:29:58.050Z,16.60
2019-01-10T01:32:28.369Z,16.60
2019-01-10T01:34:59.694Z,16.60
2019-01-10T01:37:29.943Z,16.60
2019-01-10T01:40:00.309Z,16.60
2019-01-10T01:42:30.624Z,16.60
2019-01-10T01:45:01.077Z,16.50
2019-01-10T01:47:31.587Z,16.50
2019-01-10T01:50:01.870Z,16.50
2019-01-10T01:52:32.207Z,16.50
2019-01-10T01:55:02.554Z,16.50
2019-01-10T01:57:32.993Z,16.60
2019-01-10T02:00:03.379Z,16.50
2019-01-10T02:02:33.740Z,16.60
2019-01-10T02:05:04.142Z,16.50
2019-01-10T02:07:34.525Z,16.50
2019-01-10T02:10:05.678Z,16.60
2019-01-10T02:12:36.102Z,16.60
2019-01-10T02:15:06.553Z,16.50
2019-01-10T02:17:37.014Z,16.50
2019-01-10T02:20:07.986Z,16.50
2019-01-10T02:22:38.644Z,16.50
2019-01-10T02:25:10.068Z,16.50
2019-01-10T02:27:41.410Z,16.50
2019-01-10T02:30:14.906Z,16.50
2019-01-10T02:32:45.400Z,16.50
2019-01-10T02:35:15.687Z,16.50
2019-01-10T02:37:45.977Z,16.50
2019-01-10T02:40:16.207Z,16.50
2019-01-10T02:42:46.679Z,16.60
2019-01-10T02:45:18.218Z,16.60
2019-01-10T02:47:48.422Z,16.60
2019-01-10T02:50:22.947Z,16.60
2019-01-10T02:52:53.281Z,16.60
2019-01-10T02:55:23.595Z,16.60
2019-01-10T02:57:53.957Z,16.60
2019-01-10T03:00:25.607Z,16.60
2019-01-10T03:02:56.036Z,16.80
2019-01-10T03:05:26.418Z,16.60
2019-01-10T03:07:56.661Z,16.60
2019-01-10T03:10:27.186Z,16.60
2019-01-10T03:12:57.433Z,16.60
2019-01-10T03:15:27.819Z,16.50
2019-01-10T03:17:58.222Z,16.50
2019-01-10T03:20:28.567Z,16.50
2019-01-10T03:22:58.842Z,16.50
2019-01-10T03:25:29.241Z,16.50
2019-01-10T03:27:59.541Z,16.60
2019-01-10T03:30:29.780Z,16.60
2019-01-10T03:33:00.173Z,16.50
2019-01-10T03:35:30.448Z,16.50
2019-01-10T03:38:00.689Z,16.50
2019-01-10T03:40:30.911Z,16.50
2019-01-10T03:43:01.233Z,16.50
2019-01-10T03:45:31.463Z,16.50
2019-01-10T03:48:01.884Z,16.50
2019-01-10T03:50:33.293Z,16.50
2019-01-10T03:53:03.668Z,16.50
2019-01-10T03:55:33.860Z,16.50
2019-01-10T03:58:04.137Z,16.50
2019-01-10T04:00:34.393Z,16.50
2019-01-10T04:03:04.691Z,16.60
2019-01-10T04:05:34.928Z,16.60
2019-01-10T04:08:05.236Z,16.60
2019-01-10T04:10:35.637Z,16.60
2019-01-10T04:13:05.977Z,16.60
2019-01-10T04:15:36.337Z,16.60
2019-01-10T04:18:06.707Z,16.50
2019-01-10T04:20:36.950Z,16.60
2019-01-10T04:23:07.282Z,16.60
2019-01-10T04:25:37.618Z,16.60
2019-01-10T04:28:07.938Z,16.60
2019-01-10T04:30:38.199Z,16.60
2019-01-10T04:33:08.556Z,16.70
2019-01-10T04:35:38.843Z,16.60
2019-01-10T04:38:09.094Z,16.60
2019-01-10T04:40:39.340Z,16.70
2019-01-10T04:43:09.693Z,16.60
2019-01-10T04:45:39.921Z,16.60
2019-01-10T04:48:10.131Z,16.60
2019-01-10T04:50:40.336Z,16.60
2019-01-10T04:53:10.655Z,16.60
2019-01-10T04:55:40.883Z,16.60
2019-01-10T04:58:11.237Z,16.60
2019-01-10T05:00:41.511Z,16.60
2019-01-10T05:03:11.866Z,16.60
2019-01-10T05:05:42.159Z,16.60
2019-01-10T05:08:12.507Z,16.60
2019-01-10T05:10:42.853Z,16.50
2019-01-10T05:13:13.126Z,16.50
2019-01-10T05:15:43.414Z,16.50
2019-01-10T05:18:13.846Z,16.40
2019-01-10T05:20:44.150Z,16.30
2019-01-10T05:23:14.396Z,16.30
2019-01-10T05:25:44.657Z,16.30
2019-01-10T05:28:14.973Z,16.40
2019-01-10T05:30:45.373Z,16.40
2019-01-10T05:33:15.832Z,16.30
2019-01-10T05:35:46.226Z,16.30
2019-01-10T05:38:16.579Z,16.30
2019-01-10T05:40:46.995Z,16.30
2019-01-10T05:43:17.343Z,16.30
2019-01-10T05:45:47.708Z,16.50
2019-01-10T05:48:18.122Z,16.60
2019-01-10T05:50:48.541Z,16.70
2019-01-10T05:53:18.942Z,16.70
2019-01-10T05:55:49.436Z,16.80
2019-01-10T05:58:20.845Z,16.90
2019-01-10T06:00:51.256Z,17.00
2019-01-10T06:03:24.382Z,17.10
2019-01-10T06:05:54.710Z,17.10
2019-01-10T06:08:25.164Z,17.20
2019-01-10T06:10:55.549Z,17.30
2019-01-10T06:13:25.870Z,17.30
2019-01-10T06:15:56.160Z,17.30
2019-01-10T06:18:26.548Z,17.40
2019-01-10T06:20:56.868Z,17.40
2019-01-10T06:23:27.199Z,17.40
2019-01-10T06:25:57.570Z,17.40
2019-01-10T06:28:27.976Z,17.40
2019-01-10T06:30:58.403Z,17.40
2019-01-10T06:33:28.698Z,17.30
2019-01-10T06:35:59.040Z,17.30
2019-01-10T06:38:29.367Z,17.30
2019-01-10T06:40:59.629Z,17.30
2019-01-10T06:43:29.951Z,17.20
2019-01-10T06:46:00.335Z,17.30
2019-01-10T06:48:30.884Z,17.20
2019-01-10T06:51:01.246Z,17.20
2019-01-10T06:53:31.540Z,17.20
2019-01-10T06:56:01.973Z,17.20
2019-01-10T06:58:32.364Z,17.30
2019-01-10T07:01:02.679Z,17.60
2019-01-10T07:03:33.065Z,17.30
2019-01-10T07:06:03.242Z,17.40
2019-01-10T07:08:33.527Z,17.50
2019-01-10T07:11:04.129Z,17.60
2019-01-10T07:13:34.834Z,17.70
2019-01-10T07:16:06.361Z,17.80
2019-01-10T07:18:38.434Z,17.90
2019-01-10T07:21:16.594Z,18.00
2019-01-10T07:23:47.924Z,18.20
2019-01-10T07:26:18.484Z,18.20
2019-01-10T07:28:49.431Z,18.20
2019-01-10T07:31:29.807Z,18.30
2019-01-10T07:34:01.275Z,18.40
2019-01-10T07:36:33.310Z,18.50
2019-01-10T07:39:08.481Z,18.50
2019-01-10T07:41:41.368Z,18.50
2019-01-10T07:44:11.794Z,18.50
2019-01-10T07:46:47.259Z,18.30
2019-01-10T07:49:21.596Z,18.30
2019-01-10T07:51:52.111Z,18.30
2019-01-10T07:54:22.784Z,18.30
2019-01-10T07:56:53.234Z,18.30
2019-01-10T07:59:23.508Z,18.30
2019-01-10T08:01:53.935Z,18.30
2019-01-10T08:04:24.572Z,18.30
2019-01-10T08:06:54.964Z,18.40
2019-01-10T08:09:25.370Z,18.30
2019-01-10T08:12:00.522Z,18.30
2019-01-10T08:14:28.011Z,18.30
2019-01-10T08:16:58.340Z,18.40
2019-01-10T08:19:30.179Z,18.30
2019-01-10T08:22:05.297Z,18.40
2019-01-10T08:24:42.570Z,18.30
2019-01-10T08:27:13.815Z,18.40
2019-01-10T08:30:06.091Z,18.40
2019-01-10T08:32:36.898Z,18.40
2019-01-10T08:35:07.764Z,18.50
2019-01-10T08:37:40.762Z,18.20
2019-01-10T08:40:11.770Z,18.40
2019-01-10T08:45:21.771Z,18.40
2019-01-10T08:47:50.577Z,18.50
2019-01-10T08:53:13.731Z,18.60
2019-01-10T09:00:47.690Z,18.80
2019-01-10T09:03:18.130Z,18.80
2019-01-10T09:05:49.987Z,18.80
2019-01-10T09:08:20.646Z,18.90
2019-01-10T09:10:56.107Z,18.90
2019-01-10T09:13:31.823Z,19.00
2019-01-10T09:16:03.502Z,19.00
2019-01-10T09:18:33.985Z,18.90
2019-01-10T09:21:04.812Z,18.90
2019-01-10T09:23:38.334Z,18.80
2019-01-10T09:26:37.575Z,18.80
2019-01-10T09:29:35.912Z,18.80
2019-01-10T09:32:08.055Z,18.80
2019-01-10T09:34:41.363Z,18.70
2019-01-10T09:37:13.434Z,18.70
2019-01-10T09:39:43.907Z,18.70
2019-01-10T09:42:14.595Z,18.70
2019-01-10T09:44:52.135Z,18.70
2019-01-10T09:47:25.665Z,18.70
2019-01-10T09:49:56.356Z,18.70
2019-01-10T09:52:57.583Z,18.70
2019-01-10T09:55:34.708Z,18.70
2019-01-10T09:58:07.907Z,18.80
2019-01-10T10:00:46.059Z,18.80
2019-01-10T10:03:19.038Z,18.80
2019-01-10T10:05:51.451Z,18.80
2019-01-10T10:11:19.880Z,18.90
2019-01-10T10:13:52.513Z,18.90
2019-01-10T10:16:23.510Z,19.40
2019-01-10T10:18:54.888Z,19.00
2019-01-10T10:21:29.610Z,19.00
2019-01-10T10:24:00.214Z,19.00
2019-01-10T10:26:31.612Z,19.00
2019-01-10T10:29:02.437Z,19.00
2019-01-10T10:31:36.275Z,18.90
2019-01-10T10:34:07.685Z,19.00
2019-01-10T10:36:38.290Z,19.10
2019-01-10T10:39:12.229Z,19.10
2019-01-10T10:56:51.893Z,9.10
2019-01-10T10:59:28.717Z,10.90
2019-01-10T11:02:02.264Z,10.80
2019-01-10T11:04:33.402Z,10.10
2019-01-10T11:14:46.301Z,7.00
2019-01-10T11:17:16.241Z,6.60
2019-01-10T11:19:46.985Z,6.50
2019-01-10T11:22:23.687Z,7.20
2019-01-10T11:24:57.819Z,7.40
2019-01-10T11:29:58.209Z,7.10
2019-01-10T11:32:42.456Z,6.80
2019-01-10T11:35:13.171Z,7.40
2019-01-10T11:40:15.766Z,6.70
2019-01-10T11:42:46.007Z,6.80
2019-01-10T11:45:21.087Z,7.20
2019-01-10T11:50:22.473Z,6.20
2019-01-10T11:55:24.733Z,5.60
2019-01-10T11:58:01.478Z,5.50
2019-01-10T12:00:36.880Z,6.00
2019-01-10T12:03:10.658Z,6.80
2019-01-10T12:08:13.644Z,6.80
2019-01-10T12:10:44.219Z,6.70
2019-01-10T12:13:15.007Z,6.60
2019-01-10T12:15:45.567Z,6.30
2019-01-10T12:18:19.473Z,6.30
2019-01-10T12:20:49.970Z,6.30
2019-01-10T12:23:20.713Z,6.00
2019-01-10T12:25:55.287Z,5.50
2019-01-10T12:28:26.608Z,5.30
2019-01-10T12:30:58.840Z,5.20
2019-01-10T12:33:29.277Z,5.60
2019-01-10T12:35:59.851Z,5.70
2019-01-10T12:38:32.217Z,5.50
2019-01-10T12:41:02.867Z,5.80
2019-01-10T12:43:33.127Z,5.90
2019-01-10T12:46:05.818Z,5.70
2019-01-10T12:48:35.500Z,6.10
2019-01-10T12:51:06.296Z,6.20
2019-01-10T12:53:37.047Z,6.00
2019-01-10T12:56:07.785Z,5.80
2019-01-10T12:58:36.601Z,6.40
2019-01-10T13:01:26.553Z,6.70
